createdAt,value
2019-02-14T00:05:26.633Z,85.94
2019-02-14T00:11:31.199Z,85.87
2019-02-14T00:17:36.344Z,86.49
2019-02-14T00:23:41.048Z,85.47
2019-02-14T00:29:45.661Z,85.75
2019-02-14T00:35:50.224Z,85.81
2019-02-14T00:41:55.867Z,86.09
2019-02-14T00:48:00.441Z,86.36
2019-02-14T00:54:05.630Z,85.75
2019-02-14T01:00:12.081Z,86.23
2019-02-14T01:06:16.637Z,86.43
2019-02-14T01:12:23.687Z,86.22
2019-02-14T01:18:28.327Z,85.89
2019-02-14T01:24:32.963Z,87.02
2019-02-14T01:30:37.505Z,86.30
2019-02-14T01:36:42.083Z,85.80
2019-02-14T01:42:46.621Z,86.44
2019-02-14T01:48:51.182Z,86.51
2019-02-14T01:54:55.742Z,86.57
2019-02-14T02:01:00.297Z,87.27
2019-02-14T02:07:04.913Z,87.34
2019-02-14T02:13:09.602Z,87.12
2019-02-14T02:19:14.162Z,86.49
2019-02-14T02:25:18.717Z,86.19
2019-02-14T02:31:23.289Z,86.43
2019-02-14T02:37:27.847Z,86.51
2019-02-14T02:43:32.411Z,87.19
2019-02-14T02:49:36.952Z,87.64
2019-02-14T02:55:42.323Z,88.32
2019-02-14T03:01:46.873Z,87.55
2019-02-14T03:07:51.425Z,87.48
2019-02-14T03:13:55.974Z,86.61
2019-02-14T03:20:00.540Z,86.33
2019-02-14T03:26:07.560Z,87.31
2019-02-14T03:32:12.123Z,86.65
2019-02-14T03:38:16.778Z,86.14
2019-02-14T03:44:21.316Z,86.87
2019-02-14T03:50:25.954Z,87.74
2019-02-14T03:56:30.578Z,88.04
2019-02-14T04:02:35.134Z,88.83
2019-02-14T04:08:39.689Z,88.94
2019-02-14T04:14:44.247Z,88.86
2019-02-14T04:20:48.796Z,88.27
2019-02-14T04:26:56.327Z,88.84
2019-02-14T04:33:01.190Z,89.40
2019-02-14T04:39:07.074Z,88.47
2019-02-14T04:45:13.555Z,88.73
2019-02-14T04:51:18.076Z,89.07
2019-02-14T04:57:24.109Z,88.94
2019-02-14T05:03:28.990Z,89.04
2019-02-14T05:09:33.578Z,88.60
2019-02-14T05:15:38.129Z,87.59
2019-02-14T05:21:42.760Z,89.95
2019-02-14T05:27:47.315Z,90.67
2019-02-14T05:33:51.898Z,90.41
2019-02-14T05:39:56.452Z,90.51
2019-02-14T05:46:00.998Z,90.21
2019-02-14T05:52:05.629Z,89.67
2019-02-14T05:58:10.181Z,90.16
2019-02-14T06:04:14.745Z,90.46
2019-02-14T06:10:19.292Z,91.33
2019-02-14T06:16:24.471Z,91.00
2019-02-14T06:22:29.028Z,90.77
2019-02-14T06:28:33.652Z,90.67
2019-02-14T06:34:38.207Z,89.44
2019-02-14T06:40:42.773Z,89.33
2019-02-14T06:46:47.402Z,91.18
2019-02-14T06:52:51.965Z,90.89
2019-02-14T06:58:56.541Z,90.77
2019-02-14T07:05:03.133Z,90.98
2019-02-14T07:11:07.675Z,90.63
2019-02-14T07:17:12.241Z,90.44
2019-02-14T07:23:16.830Z,90.18
2019-02-14T07:29:21.451Z,91.00
2019-02-14T07:35:26.067Z,91.08
2019-02-14T07:41:30.618Z,88.97
2019-02-14T07:47:37.267Z,90.07
2019-02-14T07:53:45.541Z,90.58
2019-02-14T07:59:50.133Z,90.30
2019-02-14T08:05:55.298Z,89.68
2019-02-14T08:11:59.860Z,87.59
2019-02-14T08:18:04.679Z,86.80
2019-02-14T08:24:09.241Z,86.64
2019-02-14T08:30:19.387Z,84.70
2019-02-14T08:36:26.502Z,83.38
2019-02-14T08:42:31.053Z,82.94
2019-02-14T08:48:35.601Z,82.06
2019-02-14T08:54:40.198Z,82.19
2019-02-14T09:00:44.752Z,81.22
2019-02-14T09:06:49.301Z,80.79
2019-02-14T09:12:53.865Z,78.47
2019-02-14T09:18:58.434Z,78.09
2019-02-14T09:25:02.972Z,76.16
2019-02-14T09:31:07.530Z,74.69
2019-02-14T09:37:12.098Z,73.59
2019-02-14T09:43:16.697Z,74.11
2019-02-14T09:49:21.245Z,72.50
2019-02-14T09:55:26.489Z,72.05
2019-02-14T10:01:31.032Z,71.33
2019-02-14T10:07:35.610Z,72.07
2019-02-14T10:13:40.202Z,71.84
2019-02-14T10:19:44.750Z,70.79
2019-02-14T10:25:49.311Z,68.75
2019-02-14T10:31:53.896Z,69.56
2019-02-14T10:37:58.421Z,69.01
2019-02-14T10:44:02.993Z,68.01
2019-02-14T10:50:10.425Z,67.50
2019-02-14T10:56:15.054Z,67.67
2019-02-14T11:02:19.679Z,65.56
2019-02-14T11:08:31.386Z,63.93
2019-02-14T11:14:31.352Z,64.79
2019-02-14T11:20:35.917Z,65.65
2019-02-14T11:26:40.537Z,64.35
2019-02-14T11:32:45.098Z,66.99
2019-02-14T11:38:49.657Z,65.60
2019-02-14T11:44:54.205Z,65.90
2019-02-14T11:50:58.747Z,63.33
2019-02-14T11:57:04.052Z,63.99
2019-02-14T12:03:08.922Z,61.85
2019-02-14T12:09:13.809Z,61.17
2019-02-14T12:15:18.660Z,59.50
2019-02-14T12:21:23.218Z,60.95
2019-02-14T12:27:27.777Z,60.66
2019-02-14T12:33:32.375Z,61.90
2019-02-14T12:39:37.008Z,60.76
2019-02-14T12:45:41.567Z,62.01
2019-02-14T12:51:47.928Z,62.12
2019-02-14T12:57:52.813Z,62.48
2019-02-14T13:03:57.372Z,60.90
2019-02-14T13:10:01.940Z,61.17
2019-02-14T13:16:06.622Z,59.48
2019-02-14T13:22:11.200Z,59.46
2019-02-14T13:28:15.825Z,59.52
2019-02-14T13:34:20.402Z,58.40
2019-02-14T13:40:25.046Z,58.79
2019-02-14T13:46:29.607Z,55.71
2019-02-14T13:52:36.166Z,54.46
2019-02-14T13:58:40.510Z,50.39
2019-02-14T14:04:45.068Z,53.75
2019-02-14T14:10:49.666Z,51.35
2019-02-14T14:16:56.213Z,52.18
2019-02-14T14:23:01.076Z,52.27
2019-02-14T14:29:05.778Z,52.08
2019-02-14T14:35:14.249Z,53.60
2019-02-14T14:41:19.150Z,54.53
2019-02-14T14:47:23.772Z,55.20
2019-02-14T14:53:28.322Z,57.64
2019-02-14T14:59:32.884Z,56.68
2019-02-14T15:05:37.521Z,57.25
2019-02-14T15:11:42.081Z,57.89
2019-02-14T15:17:47.508Z,57.71
2019-02-14T15:23:52.078Z,58.36
2019-02-14T15:29:56.624Z,57.06
2019-02-14T15:36:01.188Z,57.21
2019-02-14T15:42:05.775Z,57.82
2019-02-14T15:48:10.324Z,58.34
2019-02-14T15:54:14.903Z,60.61
2019-02-14T16:00:19.465Z,62.31
2019-02-14T16:06:28.336Z,62.51
2019-02-14T16:12:33.187Z,63.33
2019-02-14T16:18:37.728Z,64.60
2019-02-14T16:24:42.997Z,66.00
2019-02-14T16:30:47.610Z,67.23
2019-02-14T16:36:52.211Z,68.71
2019-02-14T16:42:56.872Z,69.88
2019-02-14T16:49:01.471Z,68.77
2019-02-14T16:55:07.743Z,69.02
2019-02-14T17:01:12.303Z,69.13
2019-02-14T17:07:16.924Z,70.29
2019-02-14T17:13:21.884Z,71.46
2019-02-14T17:19:26.404Z,72.28
2019-02-14T17:25:30.954Z,73.03
2019-02-14T17:31:35.680Z,75.00
2019-02-14T17:37:40.239Z,74.33
2019-02-14T17:43:44.786Z,73.29
2019-02-14T17:49:50.317Z,74.10
2019-02-14T17:55:54.873Z,74.76
2019-02-14T18:01:59.423Z,74.69
2019-02-14T18:08:04.114Z,75.43
2019-02-14T18:14:08.663Z,75.27
2019-02-14T18:20:13.221Z,75.18
2019-02-14T18:26:17.834Z,75.06
2019-02-14T18:32:22.518Z,74.87
2019-02-14T18:38:27.081Z,75.18
2019-02-14T18:44:31.643Z,75.81
2019-02-14T18:50:36.185Z,76.61
2019-02-14T18:56:40.732Z,76.96
2019-02-14T19:02:45.455Z,77.11
2019-02-14T19:08:50.339Z,77.59
2019-02-14T19:14:55.664Z,78.37
2019-02-14T19:21:00.282Z,78.18
2019-02-14T19:27:04.907Z,79.09
2019-02-14T19:33:09.593Z,79.24
2019-02-14T19:39:14.122Z,78.81
2019-02-14T19:45:18.737Z,78.78
2019-02-14T19:51:23.377Z,78.88
2019-02-14T19:57:27.914Z,78.50
2019-02-14T20:03:32.534Z,78.49
2019-02-14T20:09:37.110Z,78.53
2019-02-14T20:15:41.796Z,78.35
2019-02-14T20:21:46.408Z,77.83
2019-02-14T20:27:50.957Z,78.69
2019-02-14T20:33:58.122Z,78.58
2019-02-14T20:40:03.079Z,78.59
2019-02-14T20:46:07.706Z,78.90
2019-02-14T20:52:13.200Z,79.30
2019-02-14T20:58:18.119Z,81.11
2019-02-14T21:04:22.675Z,81.43
2019-02-14T21:10:27.854Z,81.68
2019-02-14T21:16:32.475Z,81.66
2019-02-14T21:22:37.032Z,82.55
2019-02-14T21:28:41.602Z,83.08
2019-02-14T21:34:47.364Z,83.83
2019-02-14T21:40:52.258Z,83.29
2019-02-14T21:46:56.819Z,83.36
2019-02-14T21:53:01.988Z,82.45
2019-02-14T21:59:06.536Z,82.21
2019-02-14T22:05:11.891Z,82.23
2019-02-14T22:11:16.541Z,81.70
2019-02-14T22:17:22.675Z,81.71
2019-02-14T22:23:27.411Z,81.98
2019-02-14T22:29:31.988Z,81.96
2019-02-14T22:35:36.614Z,81.47
2019-02-14T22:41:43.203Z,81.19
2019-02-14T22:47:47.456Z,81.33
2019-02-14T22:53:52.018Z,81.20
2019-02-14T22:59:56.583Z,81.46
2019-02-14T23:06:01.251Z,81.46
2019-02-14T23:12:06.003Z,82.30
2019-02-14T23:18:13.683Z,83.04
2019-02-14T23:24:18.579Z,83.25
2019-02-14T23:30:23.208Z,83.00
2019-02-14T23:36:27.793Z,82.69
2019-02-14T23:42:33.178Z,83.25
2019-02-14T23:48:37.807Z,83.77
2019-02-14T23:54:42.353Z,82.98
